Time;durP1;ratioP1;P1;durP2;ratioP2;P2;SDS_P1;SDS_P2;PMS_P1;PMS_P2;Temp;Humidity;BMP_temperature;BMP_pressure;BME280_temperature;BME280_humidity;BME280_pressure;Samples;Min_cycle;Max_cycle;Signal;HPM_P1;HPM_P2
2022/08/20 00:01:10;;;;;;;0.05;0.05;;;25.60;73.90;;;;;;3888832;30;20049;-69
2022/08/20 00:03:36;;;;;;;0.00;0.00;;;25.70;74.00;;;;;;3897928;30;20573;-69
2022/08/20 00:06:01;;;;;;;0.00;0.00;;;25.60;73.90;;;;;;3896645;30;20075;-69
2022/08/20 00:08:23;;;;;;;0.03;0.03;;;25.60;74.00;;;;;;3896527;30;20065;-70
2022/08/20 00:10:47;;;;;;;2.63;1.65;;;25.60;73.90;;;;;;3897406;30;20048;-69
2022/08/20 00:13:16;;;;;;;0.43;0.43;;;25.60;74.00;;;;;;3897531;30;20110;-70
2022/08/20 00:15:39;;;;;;;0.00;0.00;;;25.60;73.90;;;;;;3896182;30;20064;-70
2022/08/20 00:18:02;;;;;;;0.00;0.00;;;25.60;74.00;;;;;;3897975;30;20107;-69
2022/08/20 00:20:28;;;;;;;0.00;0.00;;;25.60;74.00;;;;;;3897407;30;20069;-70
2022/08/20 00:22:50;;;;;;;0.00;0.00;;;25.60;74.00;;;;;;3897971;30;20060;-69
2022/08/20 00:25:13;;;;;;;0.22;0.22;;;25.60;74.00;;;;;;3896096;30;20061;-69
2022/08/20 00:27:35;;;;;;;0.00;0.00;;;25.60;74.00;;;;;;3897546;30;20067;-70
2022/08/20 00:29:59;;;;;;;0.00;0.00;;;25.60;74.00;;;;;;3897695;30;20060;-69
2022/08/20 00:32:20;;;;;;;1.40;1.25;;;25.60;74.00;;;;;;3897501;30;20060;-69
2022/08/20 00:34:42;;;;;;;0.00;0.00;;;25.60;74.00;;;;;;3897414;30;20111;-69
2022/08/20 00:37:04;;;;;;;0.35;0.35;;;25.60;74.10;;;;;;3897579;30;20144;-70
2022/08/20 00:39:27;;;;;;;0.30;0.20;;;25.60;74.10;;;;;;3884097;30;20057;-69
2022/08/20 00:41:50;;;;;;;0.00;0.00;;;25.60;74.10;;;;;;3897019;30;20057;-69
2022/08/20 00:44:16;;;;;;;0.13;0.13;;;25.60;74.00;;;;;;3908431;30;20049;-69
2022/08/20 00:46:40;;;;;;;0.00;0.00;;;25.60;74.00;;;;;;3883952;30;20077;-70
2022/08/20 00:49:06;;;;;;;0.00;0.00;;;25.60;74.10;;;;;;3897474;30;20064;-70
2022/08/20 00:51:33;;;;;;;0.00;0.00;;;25.60;74.10;;;;;;3897722;30;20067;-70
2022/08/20 00:53:58;;;;;;;0.30;0.30;;;25.60;74.10;;;;;;3897619;30;20061;-70
2022/08/20 00:56:21;;;;;;;0.00;0.00;;;25.60;74.10;;;;;;3897861;30;20061;-70
2022/08/20 00:58:45;;;;;;;0.00;0.00;;;25.60;74.10;;;;;;3900215;30;20405;-69
2022/08/20 01:01:08;;;;;;;0.10;0.10;;;25.60;74.10;;;;;;3904885;30;20052;-69
2022/08/20 01:03:33;;;;;;;0.00;0.00;;;25.60;74.10;;;;;;3914281;30;20056;-71
2022/08/20 01:05:55;;;;;;;0.57;0.57;;;25.50;74.10;;;;;;3914666;30;20133;-70
2022/08/20 01:08:20;;;;;;;0.10;0.10;;;25.50;74.10;;;;;;3925481;30;20175;-70
2022/08/20 01:10:44;;;;;;;0.00;0.00;;;25.50;74.10;;;;;;3927952;30;20048;-70
2022/08/20 01:13:10;;;;;;;12.07;2.63;;;25.50;74.10;;;;;;3929023;30;20139;-71
2022/08/20 01:15:32;;;;;;;0.00;0.00;;;25.50;75.00;;;;;;3927942;30;20052;-71
2022/08/20 01:17:57;;;;;;;0.00;0.00;;;25.50;74.10;;;;;;3928620;30;20397;-71
2022/08/20 01:20:24;;;;;;;0.00;0.00;;;25.50;74.10;;;;;;3928126;30;20056;-71
2022/08/20 01:25:42;;;;;;;0.00;0.00;;;25.50;74.10;;;;;;3927902;30;20062;-70
2022/08/20 01:28:05;;;;;;;0.03;0.03;;;25.50;75.00;;;;;;3928613;30;20058;-70
2022/08/20 01:30:29;;;;;;;0.00;0.00;;;25.50;74.10;;;;;;3918144;30;20060;-70
2022/08/20 01:32:54;;;;;;;0.00;0.00;;;25.50;74.20;;;;;;3927343;30;20083;-69
2022/08/20 01:35:21;;;;;;;0.00;0.00;;;25.50;74.20;;;;;;3914409;30;20131;-70
2022/08/20 01:37:44;;;;;;;0.77;0.70;;;25.50;74.20;;;;;;3914036;30;20526;-69
2022/08/20 01:40:13;;;;;;;0.03;0.03;;;25.40;74.10;;;;;;3927827;30;20130;-70
2022/08/20 01:42:41;;;;;;;0.00;0.00;;;25.50;74.20;;;;;;3927647;30;20117;-65
2022/08/20 01:45:12;;;;;;;0.30;0.30;;;25.40;74.20;;;;;;3914776;30;20498;-66
2022/08/20 01:47:34;;;;;;;0.00;0.00;;;25.40;74.20;;;;;;3927317;30;20187;-67
2022/08/20 01:50:02;;;;;;;0.45;0.40;;;25.40;74.10;;;;;;3928490;30;20113;-66
2022/08/20 01:52:31;;;;;;;0.00;0.00;;;25.40;74.10;;;;;;3927085;30;20420;-66
2022/08/20 01:54:53;;;;;;;0.00;0.00;;;25.40;74.10;;;;;;3927483;30;20475;-66
2022/08/20 01:57:17;;;;;;;0.30;0.30;;;25.40;74.10;;;;;;3927131;30;20405;-67
2022/08/20 01:59:41;;;;;;;0.00;0.00;;;25.40;74.10;;;;;;3927703;30;20060;-67
2022/08/20 02:02:05;;;;;;;0.00;0.00;;;25.40;74.20;;;;;;3905067;30;20088;-67
2022/08/20 02:04:27;;;;;;;0.00;0.00;;;25.40;74.10;;;;;;3898276;30;20053;-67
2022/08/20 02:06:53;;;;;;;0.00;0.00;;;25.40;75.00;;;;;;3885966;30;20137;-66
2022/08/20 02:09:19;;;;;;;0.00;0.00;;;25.40;74.10;;;;;;3897777;30;20846;-66
2022/08/20 02:11:41;;;;;;;0.10;0.10;;;25.40;74.10;;;;;;3873388;30;20095;-66
2022/08/20 02:14:06;;;;;;;0.00;0.00;;;25.40;74.10;;;;;;3885631;30;20053;-68
2022/08/20 02:16:32;;;;;;;0.00;0.00;;;25.40;74.10;;;;;;3885457;30;20369;-66
2022/08/20 02:18:57;;;;;;;0.00;0.00;;;25.40;74.10;;;;;;3888206;30;20061;-67
2022/08/20 02:21:23;;;;;;;0.00;0.00;;;25.40;74.10;;;;;;3879136;30;20409;-66
2022/08/20 02:23:45;;;;;;;0.00;0.00;;;25.30;74.00;;;;;;3873324;30;20542;-66
2022/08/20 02:26:10;;;;;;;0.00;0.00;;;25.30;74.00;;;;;;3897115;30;20081;-66
2022/08/20 02:28:33;;;;;;;0.22;0.22;;;25.30;74.00;;;;;;3883705;30;20148;-66
2022/08/20 02:30:55;;;;;;;0.10;0.10;;;25.30;74.00;;;;;;3892795;30;20080;-65
2022/08/20 02:33:27;;;;;;;0.00;0.00;;;25.30;74.00;;;;;;3866764;30;20542;-66
2022/08/20 02:35:50;;;;;;;1.35;0.30;;;25.30;74.00;;;;;;3871912;30;20484;-66
2022/08/20 02:38:23;;;;;;;0.00;0.00;;;25.30;74.10;;;;;;3882492;30;20049;-66
2022/08/20 02:40:55;;;;;;;0.00;0.00;;;25.30;74.00;;;;;;3891015;30;20087;-66
2022/08/20 02:43:43;;;;;;;0.00;0.00;;;25.30;74.00;;;;;;3873622;30;20057;-66
2022/08/20 02:46:09;;;;;;;0.00;0.00;;;25.30;74.00;;;;;;3859371;30;20057;-67
2022/08/20 02:48:34;;;;;;;1.00;1.00;;;25.30;74.10;;;;;;3847415;30;20127;-67
2022/08/20 02:51:05;;;;;;;0.00;0.00;;;25.30;74.10;;;;;;3854792;30;20484;-67
2022/08/20 02:53:36;;;;;;;0.00;0.00;;;25.30;74.10;;;;;;3848145;30;20164;-67
2022/08/20 02:55:59;;;;;;;0.00;0.00;;;25.30;74.10;;;;;;3861285;30;20056;-67
2022/08/20 02:58:32;;;;;;;0.00;0.00;;;25.30;74.00;;;;;;3876923;30;20068;-67
2022/08/20 03:00:55;;;;;;;0.20;0.20;;;25.30;74.00;;;;;;3884783;30;20158;-68
2022/08/20 03:03:21;;;;;;;0.03;0.03;;;25.30;74.00;;;;;;3873927;30;20082;-73
2022/08/20 03:05:52;;;;;;;0.10;0.10;;;25.30;74.00;;;;;;3863319;30;20517;-72
2022/08/20 03:08:16;;;;;;;0.00;0.00;;;25.30;74.00;;;;;;3848709;30;20138;-72
2022/08/20 03:10:50;;;;;;;0.00;0.00;;;25.30;74.10;;;;;;3847178;30;20419;-73
2022/08/20 03:13:17;;;;;;;0.00;0.00;;;25.20;74.00;;;;;;3867513;30;20058;-73
2022/08/20 03:15:46;;;;;;;0.00;0.00;;;25.20;74.10;;;;;;3849936;30;20065;-72
2022/08/20 03:18:12;;;;;;;0.20;0.20;;;25.20;74.10;;;;;;3832507;30;20058;-73
2022/08/20 03:20:34;;;;;;;0.00;0.00;;;25.20;74.10;;;;;;3869640;30;20068;-72
2022/08/20 03:23:01;;;;;;;0.20;0.20;;;25.20;74.10;;;;;;3846905;30;20071;-71
2022/08/20 03:25:25;;;;;;;0.00;0.00;;;25.20;74.10;;;;;;3862493;30;20522;-72
2022/08/20 03:28:00;;;;;;;0.00;0.00;;;25.20;74.10;;;;;;3838364;30;20056;-68
2022/08/20 03:30:30;;;;;;;0.00;0.00;;;25.20;74.10;;;;;;3860590;30;20065;-68
2022/08/20 03:32:58;;;;;;;0.00;0.00;;;25.20;74.10;;;;;;3861629;30;20078;-69
2022/08/20 03:35:23;;;;;;;0.00;0.00;;;25.20;74.10;;;;;;3859441;30;20077;-71
2022/08/20 03:37:50;;;;;;;0.00;0.00;;;25.10;74.00;;;;;;3848145;30;20063;-71
2022/08/20 03:40:28;;;;;;;0.00;0.00;;;25.10;74.00;;;;;;3865077;30;20629;-73
2022/08/20 03:42:54;;;;;;;0.00;0.00;;;25.10;74.00;;;;;;3856693;30;20136;-72
2022/08/20 03:45:27;;;;;;;31.88;1.30;;;25.10;74.00;;;;;;3852415;30;20513;-72
2022/08/20 03:47:52;;;;;;;0.05;0.05;;;25.10;74.00;;;;;;3833497;30;20102;-73
2022/08/20 03:50:20;;;;;;;0.10;0.10;;;25.10;73.90;;;;;;3855032;30;20062;-74
2022/08/20 03:52:47;;;;;;;0.00;0.00;;;25.10;73.90;;;;;;3863933;30;20520;-74
2022/08/20 03:55:10;;;;;;;0.80;0.47;;;25.10;73.90;;;;;;3851764;30;20561;-74
2022/08/20 03:57:47;;;;;;;0.00;0.00;;;25.10;73.90;;;;;;3868545;30;20144;-74
2022/08/20 04:00:20;;;;;;;0.10;0.10;;;25.10;74.70;;;;;;3858997;30;20054;-72
2022/08/20 04:02:44;;;;;;;0.25;0.25;;;25.00;73.80;;;;;;3872166;30;20086;-72
2022/08/20 04:05:14;;;;;;;0.20;0.20;;;25.10;73.80;;;;;;3866581;30;20529;-68
2022/08/20 04:07:41;;;;;;;0.00;0.00;;;25.00;73.70;;;;;;3843500;30;20055;-67
2022/08/20 04:10:13;;;;;;;0.03;0.03;;;25.00;73.70;;;;;;3858642;30;20136;-68
2022/08/20 04:12:39;;;;;;;0.00;0.00;;;25.00;73.70;;;;;;3871311;30;20088;-67
2022/08/20 04:15:19;;;;;;;0.00;0.00;;;25.00;73.70;;;;;;3863951;30;20448;-67
2022/08/20 04:17:50;;;;;;;0.10;0.10;;;25.00;73.70;;;;;;3858370;30;20054;-73
2022/08/20 04:20:22;;;;;;;0.00;0.00;;;25.00;73.70;;;;;;3878136;30;20068;-71
2022/08/20 04:22:48;;;;;;;0.00;0.00;;;25.00;73.60;;;;;;3874645;30;20104;-72
2022/08/20 04:25:12;;;;;;;0.00;0.00;;;25.00;73.60;;;;;;3859578;30;20629;-72
2022/08/20 04:27:40;;;;;;;0.00;0.00;;;25.00;73.60;;;;;;3869745;30;20424;-72
2022/08/20 04:30:07;;;;;;;0.00;0.00;;;25.00;73.50;;;;;;3863247;30;20425;-71
2022/08/20 04:32:35;;;;;;;0.00;0.00;;;25.00;73.60;;;;;;3886972;30;20128;-70
2022/08/20 04:35:16;;;;;;;0.22;0.22;;;25.00;73.60;;;;;;3886222;30;20493;-73
2022/08/20 04:37:39;;;;;;;0.00;0.00;;;25.00;73.50;;;;;;3891175;30;20056;-71
2022/08/20 04:42:59;;;;;;;0.00;0.00;;;25.00;73.40;;;;;;3866703;30;20061;-72
2022/08/20 04:45:23;;;;;;;0.10;0.10;;;25.00;73.40;;;;;;3874491;30;20067;-70
2022/08/20 04:47:56;;;;;;;0.00;0.00;;;25.00;73.30;;;;;;3901766;30;20110;-71
2022/08/20 04:50:20;;;;;;;0.00;0.00;;;25.00;73.70;;;;;;3876592;30;20067;-71
2022/08/20 04:52:58;;;;;;;0.00;0.00;;;25.00;73.50;;;;;;3856474;30;20060;-71
2022/08/20 04:55:34;;;;;;;0.15;0.15;;;25.00;73.50;;;;;;3854097;30;20649;-70
2022/08/20 04:58:05;;;;;;;0.00;0.00;;;25.00;73.30;;;;;;3871140;30;20534;-70
2022/08/20 05:00:47;;;;;;;0.00;0.00;;;25.00;73.30;;;;;;3882484;30;20119;-70
2022/08/20 05:03:10;;;;;;;3.42;0.98;;;25.00;73.30;;;;;;3889488;30;20076;-71
2022/08/20 05:05:38;;;;;;;0.00;0.00;;;25.00;73.30;;;;;;3880275;30;20638;-71
2022/08/20 05:08:03;;;;;;;0.00;0.00;;;25.00;73.30;;;;;;3890349;30;20056;-69
2022/08/20 05:10:26;;;;;;;0.00;0.00;;;24.90;73.20;;;;;;3901591;30;20056;-71
2022/08/20 05:12:49;;;;;;;0.00;0.00;;;24.90;73.20;;;;;;3895263;30;20463;-71
2022/08/20 05:15:28;;;;;;;0.00;0.00;;;24.90;73.20;;;;;;3896394;30;20060;-70
2022/08/20 05:18:01;;;;;;;0.00;0.00;;;24.90;73.20;;;;;;3875327;30;20438;-71
2022/08/20 05:20:38;;;;;;;0.00;0.00;;;24.90;73.20;;;;;;3881925;30;20061;-70
2022/08/20 05:23:10;;;;;;;0.00;0.00;;;24.90;73.20;;;;;;3867120;30;20068;-70
2022/08/20 05:25:37;;;;;;;0.00;0.00;;;24.90;73.10;;;;;;3889222;30;20076;-70
2022/08/20 05:28:08;;;;;;;0.00;0.00;;;24.80;73.10;;;;;;3885940;30;20068;-70
2022/08/20 05:30:32;;;;;;;0.10;0.10;;;24.80;73.00;;;;;;3888621;30;20065;-67
2022/08/20 05:32:58;;;;;;;0.00;0.00;;;24.90;73.10;;;;;;3889116;30;20113;-68
2022/08/20 05:35:21;;;;;;;0.00;0.00;;;24.80;73.00;;;;;;3887743;30;20078;-70
2022/08/20 05:37:47;;;;;;;2.17;1.88;;;24.80;73.00;;;;;;3889957;30;20060;-67
2022/08/20 05:40:13;;;;;;;0.15;0.15;;;24.80;73.00;;;;;;3889378;30;20084;-67
2022/08/20 05:42:46;;;;;;;0.45;0.45;;;24.80;73.00;;;;;;3902794;30;20059;-68
2022/08/20 05:45:09;;;;;;;0.00;0.00;;;24.80;72.90;;;;;;3896184;30;20073;-67
2022/08/20 05:47:42;;;;;;;0.00;0.00;;;24.80;73.80;;;;;;3881003;30;20073;-68
2022/08/20 05:50:08;;;;;;;0.00;0.00;;;24.80;72.90;;;;;;3870315;30;20149;-69
2022/08/20 05:52:47;;;;;;;0.00;0.00;;;24.80;72.90;;;;;;3855882;30;20060;-68
2022/08/20 05:55:12;;;;;;;0.20;0.20;;;24.80;72.80;;;;;;3864633;30;20060;-68
2022/08/20 05:57:37;;;;;;;0.00;0.00;;;24.80;72.80;;;;;;3869331;30;20566;-71
2022/08/20 06:00:01;;;;;;;0.00;0.00;;;24.80;72.80;;;;;;3867868;30;20513;-68
2022/08/20 06:05:29;;;;;;;0.00;0.00;;;24.80;72.70;;;;;;3854747;30;20452;-67
2022/08/20 06:07:54;;;;;;;0.00;0.00;;;24.80;72.70;;;;;;3887663;30;20650;-67
2022/08/20 06:10:44;;;;;;;0.00;0.00;;;24.80;72.60;;;;;;3891504;30;20825;-68
2022/08/20 06:13:07;;;;;;;0.00;0.00;;;24.80;72.50;;;;;;3899006;30;20505;-67
2022/08/20 06:15:29;;;;;;;0.00;0.00;;;24.80;72.50;;;;;;3904609;30;20064;-68
2022/08/20 06:17:52;;;;;;;0.00;0.00;;;24.80;72.50;;;;;;3874974;30;20057;-68
2022/08/20 06:20:19;;;;;;;0.00;0.00;;;24.80;72.50;;;;;;3897858;30;20053;-71
2022/08/20 06:22:43;;;;;;;0.00;0.00;;;24.80;73.40;;;;;;3898320;30;20053;-70
2022/08/20 06:25:06;;;;;;;0.00;0.00;;;24.80;73.30;;;;;;3884837;30;20059;-67
2022/08/20 06:27:28;;;;;;;0.00;0.00;;;24.80;72.40;;;;;;3884212;30;20061;-67
2022/08/20 06:29:52;;;;;;;0.00;0.00;;;24.80;72.40;;;;;;3891783;30;20061;-66
2022/08/20 06:32:14;;;;;;;0.00;0.00;;;24.80;72.40;;;;;;3895290;30;20857;-66
2022/08/20 06:34:36;;;;;;;0.10;0.10;;;24.80;72.20;;;;;;3898903;30;20105;-67
2022/08/20 06:36:59;;;;;;;0.00;0.00;;;24.80;72.10;;;;;;3898388;30;20057;-66
2022/08/20 06:39:22;;;;;;;0.50;0.50;;;24.80;72.00;;;;;;3899235;30;20057;-66
2022/08/20 06:41:44;;;;;;;0.00;0.00;;;24.90;72.00;;;;;;3898674;30;20115;-66
2022/08/20 06:44:07;;;;;;;0.00;0.00;;;24.90;71.80;;;;;;3885634;30;20137;-66
2022/08/20 06:46:31;;;;;;;0.00;0.00;;;24.90;71.80;;;;;;3892131;30;20088;-66
2022/08/20 06:48:53;;;;;;;0.05;0.05;;;24.90;71.60;;;;;;3906250;30;20052;-66
2022/08/20 06:51:20;;;;;;;0.00;0.00;;;24.90;71.40;;;;;;3912979;30;20406;-67
2022/08/20 06:53:43;;;;;;;0.00;0.00;;;24.90;71.30;;;;;;3911814;30;20482;-67
2022/08/20 06:56:08;;;;;;;0.38;0.38;;;25.00;71.30;;;;;;3892202;30;20077;-67
2022/08/20 06:58:31;;;;;;;0.43;0.43;;;25.00;71.20;;;;;;3897993;30;20502;-66
2022/08/20 07:00:59;;;;;;;0.00;0.00;;;25.00;71.00;;;;;;3897300;30;20140;-67
2022/08/20 07:03:26;;;;;;;0.00;0.00;;;25.10;70.70;;;;;;3897965;30;20376;-66
2022/08/20 07:05:48;;;;;;;0.00;0.00;;;25.10;71.20;;;;;;3897974;30;20550;-68
2022/08/20 07:08:12;;;;;;;0.52;0.13;;;25.20;70.20;;;;;;3906834;30;20111;-68
2022/08/20 07:10:34;;;;;;;0.00;0.00;;;25.30;70.80;;;;;;3912027;30;20524;-67
2022/08/20 07:12:59;;;;;;;0.00;0.00;;;25.30;69.60;;;;;;3908827;30;20143;-67
2022/08/20 07:15:24;;;;;;;0.30;0.30;;;25.30;69.30;;;;;;3912641;30;20497;-67
2022/08/20 07:17:50;;;;;;;0.00;0.00;;;25.30;68.90;;;;;;3911903;30;20211;-67
2022/08/20 07:20:15;;;;;;;3.63;0.75;;;25.40;68.70;;;;;;3912414;30;20052;-67
2022/08/20 07:22:37;;;;;;;0.10;0.10;;;25.40;68.60;;;;;;3913915;30;20048;-67
2022/08/20 07:24:59;;;;;;;0.00;0.00;;;25.40;68.40;;;;;;3898419;30;20068;-72
2022/08/20 07:27:22;;;;;;;0.00;0.00;;;25.50;68.40;;;;;;3910367;30;20426;-71
2022/08/20 07:32:35;;;;;;;0.00;0.00;;;25.50;67.90;;;;;;3898530;30;20127;-71
2022/08/20 07:34:57;;;;;;;0.20;0.20;;;25.60;67.80;;;;;;3911694;30;20110;-71
2022/08/20 07:37:22;;;;;;;0.00;0.00;;;25.60;67.50;;;;;;3911268;30;20049;-71
2022/08/20 07:39:48;;;;;;;0.10;0.10;;;25.60;67.30;;;;;;3897910;30;20143;-71
2022/08/20 07:42:11;;;;;;;0.00;0.00;;;25.60;67.00;;;;;;3898047;30;20057;-71
2022/08/20 07:44:33;;;;;;;0.00;0.00;;;25.60;66.80;;;;;;3898141;30;20091;-72
2022/08/20 07:46:58;;;;;;;0.10;0.10;;;25.60;66.60;;;;;;3911681;30;20440;-71
2022/08/20 07:49:20;;;;;;;0.00;0.00;;;25.70;66.30;;;;;;3912013;30;20056;-66
2022/08/20 07:51:42;;;;;;;0.00;0.00;;;25.70;66.20;;;;;;3911361;30;20149;-64
2022/08/20 07:54:05;;;;;;;0.10;0.10;;;25.70;67.00;;;;;;3911017;30;20055;-66
2022/08/20 07:56:30;;;;;;;0.00;0.00;;;25.80;65.80;;;;;;3893745;30;20222;-66
2022/08/20 07:58:57;;;;;;;0.00;0.00;;;25.70;64.40;;;;;;3901956;30;20110;-67
2022/08/20 08:01:24;;;;;;;3.13;0.68;;;25.80;64.90;;;;;;3910000;30;20079;-67
2022/08/20 08:03:48;;;;;;;2.38;1.27;;;25.80;64.50;;;;;;3902422;30;20124;-66
2022/08/20 08:06:11;;;;;;;0.00;0.00;;;25.80;64.90;;;;;;3911555;30;20087;-68
2022/08/20 08:08:34;;;;;;;0.00;0.00;;;25.80;64.80;;;;;;3911786;30;20550;-68
2022/08/20 08:11:00;;;;;;;0.00;0.00;;;25.80;63.90;;;;;;3911109;30;20049;-68
2022/08/20 08:13:26;;;;;;;0.52;0.52;;;25.80;63.20;;;;;;3911882;30;20052;-68
2022/08/20 08:15:50;;;;;;;0.00;0.00;;;25.80;62.80;;;;;;3911313;30;20118;-68
2022/08/20 08:18:16;;;;;;;0.10;0.10;;;25.80;62.80;;;;;;3911536;30;20056;-68
2022/08/20 08:20:43;;;;;;;0.00;0.00;;;25.90;63.20;;;;;;3898336;30;20056;-68
2022/08/20 08:23:09;;;;;;;0.00;0.00;;;25.90;62.80;;;;;;3911822;30;20107;-68
2022/08/20 08:25:32;;;;;;;0.10;0.10;;;25.90;63.10;;;;;;3912158;30;20057;-68
2022/08/20 08:27:54;;;;;;;0.65;0.65;;;25.90;62.90;;;;;;3911855;30;20131;-68
2022/08/20 08:30:17;;;;;;;0.00;0.00;;;25.90;62.40;;;;;;3911585;30;20072;-68
2022/08/20 08:33:26;;;;;;;0.00;0.00;;;25.90;61.70;;;;;;3911460;30;20060;-67
2022/08/20 08:35:22;;;;;;;0.00;0.00;;;25.90;62.00;;;;;;3911759;30;20134;-67
2022/08/20 08:37:46;;;;;;;0.00;0.00;;;25.90;62.30;;;;;;3896991;30;20111;-67
2022/08/20 08:40:09;;;;;;;0.00;0.00;;;25.90;61.10;;;;;;3897530;30;20159;-66
2022/08/20 08:42:36;;;;;;;0.00;0.00;;;25.90;61.20;;;;;;3897519;30;20622;-67
2022/08/20 08:45:07;;;;;;;0.00;0.00;;;25.90;61.40;;;;;;3911158;30;20523;-68
2022/08/20 08:47:34;;;;;;;0.00;0.00;;;25.90;61.40;;;;;;3911053;30;20122;-67
2022/08/20 08:49:57;;;;;;;0.00;0.00;;;25.90;61.20;;;;;;3897875;30;20155;-67
2022/08/20 08:52:23;;;;;;;0.00;0.00;;;25.90;59.70;;;;;;3911036;30;20391;-67
2022/08/20 08:54:49;;;;;;;0.00;0.00;;;25.90;60.10;;;;;;3910842;30;20139;-67
2022/08/20 08:57:12;;;;;;;0.25;0.25;;;25.90;59.80;;;;;;3911692;30;23790;-67
2022/08/20 08:59:34;;;;;;;0.10;0.10;;;25.90;59.90;;;;;;3911589;30;20060;-67
2022/08/20 09:02:08;;;;;;;0.00;0.00;;;25.90;59.70;;;;;;3910456;30;20107;-67
2022/08/20 09:04:34;;;;;;;0.00;0.00;;;26.00;58.70;;;;;;3911457;30;20131;-68
2022/08/20 09:06:57;;;;;;;0.00;0.00;;;26.00;58.90;;;;;;3911287;30;20068;-67
2022/08/20 09:09:24;;;;;;;0.10;0.10;;;25.90;59.10;;;;;;3911784;30;20080;-67
2022/08/20 09:11:51;;;;;;;0.00;0.00;;;26.00;59.30;;;;;;3897397;30;20060;-68
2022/08/20 09:14:13;;;;;;;0.00;0.00;;;26.00;59.70;;;;;;3911745;30;20274;-67
2022/08/20 09:16:36;;;;;;;0.00;0.00;;;26.00;59.70;;;;;;3911733;30;20045;-67
2022/08/20 09:19:06;;;;;;;0.00;0.00;;;26.00;59.40;;;;;;3912712;30;20406;-67
2022/08/20 09:21:28;;;;;;;0.00;0.00;;;26.00;59.20;;;;;;3913639;30;20044;-66
2022/08/20 09:23:50;;;;;;;0.00;0.00;;;26.00;58.50;;;;;;3904875;30;20056;-67
2022/08/20 09:26:13;;;;;;;7.60;0.77;;;26.00;58.50;;;;;;3913627;30;20061;-67
2022/08/20 09:28:37;;;;;;;0.00;0.00;;;26.00;58.80;;;;;;3913368;30;20490;-68
2022/08/20 09:31:00;;;;;;;0.00;0.00;;;26.00;58.90;;;;;;3913317;30;20053;-67
2022/08/20 09:33:22;;;;;;;0.77;0.77;;;26.10;59.20;;;;;;3898583;30;20057;-68
2022/08/20 09:35:45;;;;;;;0.00;0.00;;;26.10;59.30;;;;;;3899752;30;20076;-68
2022/08/20 09:38:07;;;;;;;0.15;0.15;;;26.10;58.90;;;;;;3893025;30;20497;-67
2022/08/20 09:40:30;;;;;;;0.00;0.00;;;26.10;59.00;;;;;;3913877;30;20099;-67
2022/08/20 09:42:52;;;;;;;0.00;0.00;;;26.10;59.00;;;;;;3912260;30;20060;-67
2022/08/20 09:45:15;;;;;;;0.00;0.00;;;26.10;59.10;;;;;;3914168;30;20053;-68
2022/08/20 09:47:38;;;;;;;0.00;0.00;;;26.20;58.70;;;;;;3905055;30;20535;-67
2022/08/20 09:50:00;;;;;;;0.52;0.52;;;26.20;58.00;;;;;;3913227;30;20064;-67
2022/08/20 09:52:26;;;;;;;0.20;0.20;;;26.20;58.30;;;;;;3913599;30;20433;-67
2022/08/20 09:54:48;;;;;;;0.00;0.00;;;26.20;59.00;;;;;;3913835;30;20056;-68
2022/08/20 09:57:11;;;;;;;0.00;0.00;;;26.20;58.20;;;;;;3913173;30;20897;-68
2022/08/20 09:59:34;;;;;;;0.00;0.00;;;26.20;58.20;;;;;;3913832;30;20057;-68
2022/08/20 10:01:58;;;;;;;0.00;0.00;;;26.20;57.10;;;;;;3913531;30;20064;-68
2022/08/20 10:04:20;;;;;;;0.00;0.00;;;26.20;57.80;;;;;;3909222;30;20052;-68
2022/08/20 10:06:42;;;;;;;0.00;0.00;;;26.30;57.60;;;;;;3912506;30;20517;-67
2022/08/20 10:09:04;;;;;;;0.25;0.25;;;26.30;57.70;;;;;;3913446;30;20103;-66
2022/08/20 10:11:26;;;;;;;1.90;0.90;;;26.30;57.70;;;;;;3913150;30;20062;-66
2022/08/20 10:13:49;;;;;;;0.00;0.00;;;26.30;57.90;;;;;;3913429;30;20092;-66
2022/08/20 10:16:11;;;;;;;0.00;0.00;;;26.30;57.80;;;;;;3913234;30;20153;-66
2022/08/20 10:18:34;;;;;;;0.00;0.00;;;26.20;57.70;;;;;;3913385;30;20053;-66
2022/08/20 10:20:57;;;;;;;0.00;0.00;;;26.20;58.50;;;;;;3913315;30;20480;-66
2022/08/20 10:23:19;;;;;;;0.00;0.00;;;26.20;57.50;;;;;;3913361;30;20057;-68
2022/08/20 10:25:42;;;;;;;0.10;0.10;;;26.20;57.20;;;;;;3899516;30;20119;-68
2022/08/20 10:28:05;;;;;;;0.00;0.00;;;26.30;57.00;;;;;;3913645;30;20063;-68
2022/08/20 10:30:27;;;;;;;0.00;0.00;;;26.30;56.80;;;;;;3909535;30;20429;-65
2022/08/20 10:32:49;;;;;;;0.00;0.00;;;26.30;56.80;;;;;;3902732;30;20068;-67
2022/08/20 10:35:13;;;;;;;0.00;0.00;;;26.30;56.40;;;;;;3913040;30;20052;-68
2022/08/20 10:37:35;;;;;;;0.00;0.00;;;26.30;56.10;;;;;;3913407;30;20417;-67
2022/08/20 10:39:58;;;;;;;0.47;0.47;;;26.40;56.00;;;;;;3912177;30;20088;-70
2022/08/20 10:42:20;;;;;;;0.00;0.00;;;26.40;56.70;;;;;;3912952;30;20056;-68
2022/08/20 10:44:42;;;;;;;0.00;0.00;;;26.40;55.50;;;;;;3912466;30;20531;-68
2022/08/20 10:47:20;;;;;;;0.00;0.00;;;26.40;55.60;;;;;;3912835;30;20056;-67
2022/08/20 10:49:43;;;;;;;0.00;0.00;;;26.50;55.00;;;;;;3913297;30;20061;-67
2022/08/20 10:52:06;;;;;;;0.00;0.00;;;26.50;54.70;;;;;;3912426;30;20066;-67
2022/08/20 10:54:28;;;;;;;0.00;0.00;;;26.60;54.50;;;;;;3912716;30;20425;-68
2022/08/20 10:56:50;;;;;;;0.00;0.00;;;26.60;54.30;;;;;;3912378;30;20176;-68
2022/08/20 10:59:13;;;;;;;0.30;0.30;;;26.60;54.90;;;;;;3913146;30;20060;-68
2022/08/20 11:01:35;;;;;;;1.10;0.73;;;26.60;54.50;;;;;;3912770;30;20195;-68
2022/08/20 11:03:57;;;;;;;0.00;0.00;;;26.60;54.20;;;;;;3911908;30;20073;-68
2022/08/20 11:06:19;;;;;;;0.00;0.00;;;26.60;54.50;;;;;;3912019;30;20064;-69
2022/08/20 11:08:42;;;;;;;0.00;0.00;;;26.60;54.20;;;;;;3912640;30;20052;-69
2022/08/20 11:11:04;;;;;;;0.85;0.50;;;26.60;54.30;;;;;;3912199;30;20129;-71
2022/08/20 11:13:27;;;;;;;0.00;0.00;;;26.70;54.30;;;;;;3912552;30;20128;-70
2022/08/20 11:15:49;;;;;;;0.00;0.00;;;26.70;53.80;;;;;;3912556;30;20529;-70
2022/08/20 11:18:14;;;;;;;0.00;0.00;;;26.70;53.40;;;;;;3912630;30;20060;-70
2022/08/20 11:20:36;;;;;;;1.25;1.20;;;26.70;53.30;;;;;;3912526;30;20052;-70
2022/08/20 11:22:59;;;;;;;0.00;0.00;;;26.70;53.50;;;;;;3912116;30;20139;-73
2022/08/20 11:25:24;;;;;;;0.00;0.00;;;26.70;53.70;;;;;;3911577;30;20055;-72
2022/08/20 11:27:49;;;;;;;0.00;0.00;;;26.70;54.00;;;;;;3912149;30;20057;-71
2022/08/20 11:30:14;;;;;;;0.00;0.00;;;26.60;54.10;;;;;;3912253;30;20075;-71
2022/08/20 11:32:36;;;;;;;0.00;0.00;;;26.60;54.10;;;;;;3899395;30;20141;-72
2022/08/20 11:34:58;;;;;;;0.10;0.10;;;26.60;54.30;;;;;;3912326;30;20512;-72
2022/08/20 11:37:24;;;;;;;0.00;0.00;;;26.60;54.50;;;;;;3911921;30;20107;-72
2022/08/20 11:39:46;;;;;;;0.00;0.00;;;26.60;54.60;;;;;;3912126;30;20079;-71
2022/08/20 11:42:10;;;;;;;1.00;1.00;;;26.50;54.60;;;;;;3911260;30;20072;-71
2022/08/20 11:44:32;;;;;;;0.17;0.17;;;26.50;54.60;;;;;;3912163;30;20056;-71
2022/08/20 11:46:57;;;;;;;0.00;0.00;;;26.50;54.70;;;;;;3898464;30;20065;-72
2022/08/20 11:49:18;;;;;;;0.10;0.10;;;26.50;54.30;;;;;;3911778;30;20494;-72
2022/08/20 11:51:41;;;;;;;0.00;0.00;;;26.50;54.60;;;;;;3898716;30;20056;-71
2022/08/20 11:54:09;;;;;;;0.00;0.00;;;26.50;54.80;;;;;;3911454;30;20509;-72
2022/08/20 11:56:32;;;;;;;0.00;0.00;;;26.40;54.80;;;;;;3911637;30;20060;-71
2022/08/20 11:58:55;;;;;;;0.00;0.00;;;26.40;54.90;;;;;;3911783;30;20173;-71
2022/08/20 12:01:17;;;;;;;0.10;0.10;;;26.40;55.00;;;;;;3911873;30;20059;-72
2022/08/20 12:03:40;;;;;;;27.75;1.35;;;26.50;55.20;;;;;;3911871;30;20147;-70
2022/08/20 12:06:02;;;;;;;0.00;0.00;;;26.50;55.30;;;;;;3911592;30;20578;-72
2022/08/20 12:08:24;;;;;;;0.00;0.00;;;26.50;55.20;;;;;;3908439;30;20126;-72
2022/08/20 12:10:48;;;;;;;0.20;0.20;;;26.50;55.30;;;;;;3898191;30;20049;-71
2022/08/20 12:13:10;;;;;;;0.00;0.00;;;26.50;55.20;;;;;;3897041;30;20079;-67
2022/08/20 12:15:35;;;;;;;0.00;0.00;;;26.50;55.20;;;;;;3897363;30;20053;-67
2022/08/20 12:17:57;;;;;;;0.50;0.50;;;26.50;55.30;;;;;;3897456;30;20061;-67
2022/08/20 12:20:19;;;;;;;1.67;0.90;;;26.50;55.70;;;;;;3897614;30;20053;-66
2022/08/20 12:22:42;;;;;;;0.00;0.00;;;26.50;54.80;;;;;;3883231;30;20628;-67
2022/08/20 12:25:06;;;;;;;0.10;0.10;;;26.50;54.80;;;;;;3883809;30;20061;-72
2022/08/20 12:27:33;;;;;;;0.77;0.77;;;26.50;54.80;;;;;;3888770;30;20059;-71
2022/08/20 12:29:57;;;;;;;0.00;0.00;;;26.50;54.70;;;;;;3897987;30;20490;-71
2022/08/20 12:32:22;;;;;;;0.00;0.00;;;26.50;54.80;;;;;;3897700;30;20068;-72
2022/08/20 12:34:44;;;;;;;0.00;0.00;;;26.50;54.50;;;;;;3897988;30;20064;-66
2022/08/20 12:37:09;;;;;;;0.00;0.00;;;26.50;55.00;;;;;;3897138;30;20193;-67
2022/08/20 12:39:37;;;;;;;0.00;0.00;;;26.50;54.30;;;;;;3909017;30;20101;-66
2022/08/20 12:42:01;;;;;;;0.47;0.47;;;26.50;54.20;;;;;;3897282;30;20182;-66
2022/08/20 12:44:23;;;;;;;0.00;0.00;;;26.50;54.20;;;;;;3897708;30;20447;-66
2022/08/20 12:46:46;;;;;;;0.55;0.55;;;26.50;54.20;;;;;;3897072;30;20410;-70